createdAt,value
2019-03-11T00:00:35.976Z,94520.33
2019-03-11T00:03:05.180Z,94536.17
2019-03-11T00:05:33.820Z,94534.97
2019-03-11T00:08:02.420Z,94528.09
2019-03-11T00:10:31.060Z,94517.99
2019-03-11T00:12:59.715Z,94509.05
2019-03-11T00:15:28.587Z,94511.69
2019-03-11T00:17:57.216Z,94509.34
2019-03-11T00:20:25.850Z,94509.34
2019-03-11T00:22:54.521Z,94518.03
2019-03-11T00:25:23.016Z,94516.65
2019-03-11T00:27:51.515Z,94523.86
2019-03-11T00:30:20.184Z,94522.22
2019-03-11T00:32:48.676Z,94525.95
2019-03-11T00:35:17.309Z,94520.12
2019-03-11T00:37:45.980Z,94509.73
2019-03-11T00:40:15.816Z,94510.63
2019-03-11T00:42:44.372Z,94504.73
2019-03-11T00:45:15.007Z,94500.31
2019-03-11T00:47:43.742Z,94508.52
2019-03-11T00:50:13.278Z,94508.56
2019-03-11T00:52:42.036Z,94520.13
2019-03-11T00:55:12.721Z,94523.45
2019-03-11T00:57:41.354Z,94520.97
2019-03-11T01:00:15.784Z,94521.13
2019-03-11T01:02:44.344Z,94518.13
2019-03-11T01:05:13.064Z,94515.28
2019-03-11T01:07:41.744Z,94521.34
2019-03-11T01:10:10.580Z,94515.29
2019-03-11T01:12:39.222Z,94511.31
2019-03-11T01:15:10.062Z,94510.00
2019-03-11T01:17:38.553Z,94507.31
2019-03-11T01:20:09.487Z,94508.42
2019-03-11T01:22:38.227Z,94501.73
2019-03-11T01:25:08.555Z,94508.44
2019-03-11T01:27:37.048Z,94505.69
2019-03-11T01:30:09.031Z,94506.55
2019-03-11T01:32:37.668Z,94505.73
2019-03-11T01:35:07.594Z,94496.09
2019-03-11T01:37:36.202Z,94491.98
2019-03-11T01:40:07.271Z,94494.02
2019-03-11T01:42:35.898Z,94500.88
2019-03-11T01:45:07.416Z,94502.10
2019-03-11T01:47:35.903Z,94506.34
2019-03-11T01:50:06.136Z,94505.52
2019-03-11T01:52:34.687Z,94501.77
2019-03-11T01:55:03.726Z,94497.84
2019-03-11T01:57:32.435Z,94498.25
2019-03-11T02:00:00.993Z,94500.06
2019-03-11T02:02:29.482Z,94495.58
2019-03-11T02:04:58.109Z,94492.44
2019-03-11T02:07:26.775Z,94496.27
2019-03-11T02:09:55.273Z,94501.34
2019-03-11T02:12:23.838Z,94504.41
2019-03-11T02:14:52.551Z,94497.06
2019-03-11T02:17:21.181Z,94500.44
2019-03-11T02:19:49.745Z,94492.81
2019-03-11T02:22:18.284Z,94497.47
2019-03-11T02:24:46.916Z,94499.30
2019-03-11T02:27:15.551Z,94497.11
2019-03-11T02:29:44.083Z,94497.27
2019-03-11T02:32:12.640Z,94479.91
2019-03-11T02:34:41.302Z,94489.89
2019-03-11T02:37:10.008Z,94494.30
2019-03-11T02:39:38.497Z,94491.63
2019-03-11T02:42:06.986Z,94490.11
2019-03-11T02:44:35.650Z,94484.17
2019-03-11T02:47:04.498Z,94488.05
2019-03-11T02:49:32.981Z,94490.41
2019-03-11T02:52:01.512Z,94484.97
2019-03-11T02:54:30.143Z,94484.91
2019-03-11T02:57:15.037Z,94497.92
2019-03-11T02:59:43.567Z,94500.90
2019-03-11T03:02:13.766Z,94509.80
2019-03-11T03:04:44.028Z,94511.34
2019-03-11T03:07:12.657Z,94508.20
2019-03-11T03:09:41.263Z,94513.13
2019-03-11T03:12:09.894Z,94513.53
2019-03-11T03:14:38.384Z,94521.91
2019-03-11T03:17:06.945Z,94520.20
2019-03-11T03:19:35.572Z,94527.11
2019-03-11T03:22:04.243Z,94529.32
2019-03-11T03:24:32.789Z,94529.02
2019-03-11T03:27:01.285Z,94535.30
2019-03-11T03:29:29.953Z,94537.02
2019-03-11T03:31:58.600Z,94535.65
2019-03-11T03:34:27.072Z,94527.92
2019-03-11T03:36:55.605Z,94532.09
2019-03-11T03:39:24.233Z,94540.02
2019-03-11T03:41:52.859Z,94542.39
2019-03-11T03:44:21.386Z,94544.21
2019-03-11T03:46:50.013Z,94554.89
2019-03-11T03:49:18.641Z,94549.54
2019-03-11T03:51:47.162Z,94553.97
2019-03-11T03:54:15.799Z,94560.72
2019-03-11T03:56:44.507Z,94555.08
2019-03-11T03:59:13.146Z,94558.95
2019-03-11T04:01:41.699Z,94555.91
2019-03-11T04:04:10.318Z,94569.87
2019-03-11T04:06:38.982Z,94571.56
2019-03-11T04:09:07.531Z,94575.97
2019-03-11T04:11:36.085Z,94579.64
2019-03-11T04:14:04.710Z,94579.34
2019-03-11T04:16:33.340Z,94586.75
2019-03-11T04:19:01.958Z,94585.10
2019-03-11T04:21:30.526Z,94599.23
2019-03-11T04:23:59.149Z,94596.68
2019-03-11T04:26:28.683Z,94598.70
2019-03-11T04:28:57.758Z,94597.02
2019-03-11T04:31:26.387Z,94602.99
2019-03-11T04:33:55.152Z,94605.77
2019-03-11T04:36:23.942Z,94602.27
2019-03-11T04:38:52.657Z,94597.87
2019-03-11T04:41:21.324Z,94601.55
2019-03-11T04:43:49.827Z,94598.97
2019-03-11T04:46:18.326Z,94608.72
2019-03-11T04:48:46.994Z,94605.34
2019-03-11T04:51:15.627Z,94609.14
2019-03-11T04:53:44.117Z,94608.84
2019-03-11T04:56:12.641Z,94605.34
2019-03-11T04:58:41.327Z,94602.76
2019-03-11T05:01:09.959Z,94602.30
2019-03-11T05:03:38.558Z,94600.01
2019-03-11T05:06:07.044Z,94606.03
2019-03-11T05:08:35.681Z,94610.80
2019-03-11T05:11:04.352Z,94609.88
2019-03-11T05:13:32.984Z,94601.45
2019-03-11T05:16:01.619Z,94600.87
2019-03-11T05:18:30.231Z,94599.93
2019-03-11T05:20:58.802Z,94611.38
2019-03-11T05:23:27.434Z,94604.65
2019-03-11T05:25:56.122Z,94603.38
2019-03-11T05:28:24.681Z,94595.62
2019-03-11T05:30:53.312Z,94603.25
2019-03-11T05:33:21.978Z,94598.36
2019-03-11T05:35:50.615Z,94595.03
2019-03-11T05:38:19.112Z,94593.30
2019-03-11T05:40:47.642Z,94590.38
2019-03-11T05:43:16.262Z,94591.12
2019-03-11T05:45:44.893Z,94591.89
2019-03-11T05:48:13.501Z,94597.36
2019-03-11T05:50:42.144Z,94595.20
2019-03-11T05:53:10.651Z,94590.86
2019-03-11T05:55:39.207Z,94584.63
2019-03-11T05:58:07.804Z,94583.83
2019-03-11T06:00:36.443Z,94588.73
2019-03-11T06:03:05.044Z,94598.23
2019-03-11T06:05:33.684Z,94599.06
2019-03-11T06:08:02.325Z,94594.92
2019-03-11T06:10:30.995Z,94604.28
2019-03-11T06:12:59.487Z,94597.57
2019-03-11T06:15:27.986Z,94597.67
2019-03-11T06:17:56.658Z,94597.48
2019-03-11T06:20:32.911Z,94604.40
2019-03-11T06:23:03.082Z,94606.23
2019-03-11T06:25:31.656Z,94613.31
2019-03-11T06:28:00.278Z,94607.62
2019-03-11T06:30:29.260Z,94612.72
2019-03-11T06:32:58.031Z,94612.61
2019-03-11T06:35:26.715Z,94613.75
2019-03-11T06:37:55.257Z,94614.39
2019-03-11T06:40:23.830Z,94613.30
2019-03-11T06:42:52.862Z,94607.55
2019-03-11T06:45:21.525Z,94600.50
2019-03-11T06:47:50.170Z,94610.31
2019-03-11T06:50:18.735Z,94607.94
2019-03-11T06:52:47.400Z,94601.58
2019-03-11T06:55:16.038Z,94592.95
2019-03-11T06:57:44.606Z,94589.54
2019-03-11T07:00:20.493Z,94591.09
2019-03-11T07:02:49.227Z,94585.52
2019-03-11T07:05:20.537Z,94583.17
2019-03-11T07:07:48.305Z,94577.73
2019-03-11T07:10:17.534Z,94572.82
2019-03-11T07:12:46.050Z,94567.17
2019-03-11T07:15:16.024Z,94580.41
2019-03-11T07:17:45.161Z,94564.66
2019-03-11T07:20:20.365Z,94562.97
2019-03-11T07:22:48.893Z,94563.45
2019-03-11T07:25:17.452Z,94553.13
2019-03-11T07:27:46.080Z,94550.21
2019-03-11T07:30:19.795Z,94549.84
2019-03-11T07:32:48.354Z,94546.14
2019-03-11T07:35:17.157Z,94541.56
2019-03-11T07:37:45.843Z,94542.65
2019-03-11T07:40:15.972Z,94535.37
2019-03-11T07:42:44.704Z,94533.77
2019-03-11T07:45:15.464Z,94529.25
2019-03-11T07:47:44.165Z,94535.50
2019-03-11T07:50:15.132Z,94524.27
2019-03-11T07:52:43.763Z,94523.56
2019-03-11T07:55:13.502Z,94522.59
2019-03-11T07:57:42.165Z,94524.22
2019-03-11T08:00:16.563Z,94522.08
2019-03-11T08:02:45.194Z,94521.66
2019-03-11T08:05:14.030Z,94519.75
2019-03-11T08:07:48.888Z,94516.77
2019-03-11T08:10:23.380Z,94519.47
2019-03-11T08:12:52.147Z,94510.05
2019-03-11T08:15:20.775Z,94503.65
2019-03-11T08:17:49.375Z,94508.58
2019-03-11T08:20:18.811Z,94507.69
2019-03-11T08:22:47.438Z,94507.64
2019-03-11T08:25:16.511Z,94505.37
2019-03-11T08:27:45.246Z,94499.66
2019-03-11T08:30:19.758Z,94494.35
2019-03-11T08:32:48.425Z,94494.83
2019-03-11T08:35:17.159Z,94482.83
2019-03-11T08:37:45.902Z,94481.82
2019-03-11T08:40:29.083Z,94477.38
2019-03-11T08:42:57.764Z,94475.34
2019-03-11T08:45:26.394Z,94473.55
2019-03-11T08:47:55.068Z,94464.05
2019-03-11T08:50:26.687Z,94466.70
2019-03-11T08:52:55.319Z,94457.66
2019-03-11T08:55:23.952Z,94462.26
2019-03-11T08:57:52.529Z,94455.93
2019-03-11T09:00:24.600Z,94456.44
2019-03-11T09:02:53.221Z,94448.27
2019-03-11T09:05:21.843Z,94447.48
2019-03-11T09:07:53.894Z,94441.94
2019-03-11T09:10:22.577Z,94433.99
2019-03-11T09:12:51.260Z,94422.72
2019-03-11T09:15:21.126Z,94417.66
2019-03-11T09:17:49.728Z,94411.53
2019-03-11T09:20:18.868Z,94408.12
2019-03-11T09:22:47.513Z,94402.55
2019-03-11T09:25:29.459Z,94413.01
2019-03-11T09:27:58.098Z,94402.38
2019-03-11T09:30:26.841Z,94410.97
2019-03-11T09:32:55.529Z,94408.52
2019-03-11T09:35:24.103Z,94409.13
2019-03-11T09:37:52.741Z,94395.03
2019-03-11T09:40:32.255Z,94390.58
2019-03-11T09:42:52.228Z,94391.89
2019-03-11T09:45:20.851Z,94392.97
2019-03-11T09:47:49.538Z,94398.06
2019-03-11T09:50:18.470Z,94390.33
2019-03-11T09:52:46.984Z,94391.41
2019-03-11T09:55:20.776Z,94394.09
2019-03-11T09:57:49.752Z,94395.05
2019-03-11T10:00:25.929Z,94394.53
2019-03-11T10:02:54.487Z,94389.41
2019-03-11T10:05:23.241Z,94389.95
2019-03-11T10:07:52.012Z,94394.88
2019-03-11T10:10:25.366Z,94393.22
2019-03-11T10:12:56.977Z,94383.54
2019-03-11T10:15:25.703Z,94386.09
2019-03-11T10:17:54.350Z,94391.27
2019-03-11T10:20:22.933Z,94390.03
2019-03-11T10:22:51.575Z,94383.25
2019-03-11T10:25:21.213Z,94380.14
2019-03-11T10:27:50.505Z,94377.25
2019-03-11T10:30:23.654Z,94367.61
2019-03-11T10:32:52.305Z,94373.08
2019-03-11T10:35:32.007Z,94371.97
2019-03-11T10:37:51.359Z,94372.47
2019-03-11T10:40:24.240Z,94377.80
2019-03-11T10:42:52.920Z,94370.78
2019-03-11T10:45:32.229Z,94374.33
2019-03-11T10:48:00.787Z,94369.91
2019-03-11T10:50:29.427Z,94359.33
2019-03-11T10:52:58.056Z,94364.27
2019-03-11T10:55:27.638Z,94364.14
2019-03-11T10:57:56.267Z,94365.54
2019-03-11T11:00:27.567Z,94356.33
2019-03-11T11:02:56.163Z,94363.45
2019-03-11T11:05:24.789Z,94361.31
2019-03-11T11:07:53.722Z,94357.88
2019-03-11T11:10:22.590Z,94351.37
2019-03-11T11:12:51.297Z,94343.74
2019-03-11T11:15:24.698Z,94348.13
2019-03-11T11:17:53.481Z,94349.58
2019-03-11T11:20:23.339Z,94326.88
2019-03-11T11:22:53.438Z,94328.44
2019-03-11T11:25:23.308Z,94323.16
2019-03-11T11:27:51.874Z,94315.59
2019-03-11T11:30:30.701Z,94326.88
2019-03-11T11:32:59.275Z,94316.84
2019-03-11T11:35:27.905Z,94305.89
2019-03-11T11:37:56.826Z,94301.87
2019-03-11T11:40:29.476Z,94300.66
2019-03-11T11:42:58.121Z,94297.02
2019-03-11T11:45:27.988Z,94290.50
2019-03-11T11:47:56.625Z,94291.42
2019-03-11T11:50:25.749Z,94281.55
2019-03-11T11:52:54.735Z,94271.30
2019-03-11T11:55:26.044Z,94267.88
2019-03-11T11:57:54.680Z,94266.44
2019-03-11T12:00:40.145Z,94258.11
2019-03-11T12:03:08.775Z,94254.92
2019-03-11T12:05:37.345Z,94240.41
2019-03-11T12:08:06.078Z,94237.67
2019-03-11T12:10:35.002Z,94235.62
2019-03-11T12:13:03.636Z,94232.84
2019-03-11T12:15:32.298Z,94227.05
2019-03-11T12:18:00.946Z,94216.95
2019-03-11T12:20:30.685Z,94222.45
2019-03-11T12:22:59.469Z,94213.41
2019-03-11T12:25:28.096Z,94212.48
2019-03-11T12:27:58.168Z,94208.34
2019-03-11T12:30:34.322Z,94212.02
2019-03-11T12:33:02.980Z,94198.45
2019-03-11T12:35:31.605Z,94200.42
2019-03-11T12:38:02.981Z,94189.27
2019-03-11T12:40:31.718Z,94194.33
2019-03-11T12:43:00.341Z,94189.66
2019-03-11T12:45:29.053Z,94187.84
2019-03-11T12:47:57.683Z,94176.63
2019-03-11T12:50:30.575Z,94179.53
2019-03-11T12:52:59.271Z,94180.16
2019-03-11T12:55:27.998Z,94173.72
2019-03-11T12:57:56.632Z,94169.37
2019-03-11T13:00:28.288Z,94164.83
2019-03-11T13:02:56.921Z,94157.84
2019-03-11T13:05:25.628Z,94152.61
2019-03-11T13:07:54.295Z,94149.18
2019-03-11T13:10:25.841Z,94142.77
2019-03-11T13:12:54.565Z,94149.10
2019-03-11T13:15:23.413Z,94140.71
2019-03-11T13:17:52.046Z,94139.34
2019-03-11T13:20:41.929Z,94128.34
2019-03-11T13:23:10.568Z,94124.67
2019-03-11T13:25:40.150Z,94128.71
2019-03-11T13:28:08.829Z,94124.45
2019-03-11T13:30:37.453Z,94124.66
2019-03-11T13:33:06.093Z,94118.13
2019-03-11T13:35:34.725Z,94114.34
2019-03-11T13:38:03.461Z,94122.34
2019-03-11T13:40:32.094Z,94116.80
2019-03-11T13:43:00.727Z,94113.59
2019-03-11T13:45:29.361Z,94114.84
2019-03-11T13:47:57.985Z,94110.09
2019-03-11T13:50:26.615Z,94101.66
2019-03-11T13:52:55.288Z,94110.82
2019-03-11T13:55:23.915Z,94100.94
2019-03-11T13:57:52.748Z,94093.63
2019-03-11T14:00:22.021Z,94085.32
2019-03-11T14:02:50.656Z,94079.79
2019-03-11T14:05:19.527Z,94079.42
2019-03-11T14:07:48.153Z,94086.52
2019-03-11T14:10:17.381Z,94085.66
2019-03-11T14:12:46.014Z,94081.73
2019-03-11T14:15:18.875Z,94082.67
2019-03-11T14:17:47.719Z,94075.41
2019-03-11T14:20:16.857Z,94085.71
2019-03-11T14:22:45.502Z,94084.89
2019-03-11T14:25:15.188Z,94074.23
2019-03-11T14:27:43.814Z,94074.35
2019-03-11T14:30:18.239Z,94063.87
2019-03-11T14:32:46.926Z,94065.53
2019-03-11T14:35:15.556Z,94062.84
2019-03-11T14:37:44.195Z,94065.66
2019-03-11T14:40:17.072Z,94063.94
2019-03-11T14:42:45.720Z,94069.38
2019-03-11T14:45:22.733Z,94074.05
2019-03-11T14:47:51.653Z,94071.73
2019-03-11T14:50:20.306Z,94072.90
2019-03-11T14:52:48.974Z,94067.80
2019-03-11T14:55:17.605Z,94075.94
2019-03-11T14:57:46.235Z,94077.20
2019-03-11T15:00:21.663Z,94083.55
2019-03-11T15:02:50.302Z,94079.95
2019-03-11T15:05:19.537Z,94076.79
2019-03-11T15:07:48.702Z,94075.39
2019-03-11T15:10:18.414Z,94076.11
2019-03-11T15:12:47.707Z,94076.56
2019-03-11T15:15:20.991Z,94089.34
2019-03-11T15:17:49.625Z,94073.09
2019-03-11T15:20:18.662Z,94083.64
2019-03-11T15:22:47.441Z,94093.95
2019-03-11T15:25:16.469Z,94100.09
2019-03-11T15:27:45.099Z,94086.73
2019-03-11T15:30:27.608Z,94080.17
2019-03-11T15:32:56.291Z,94087.27
2019-03-11T15:35:24.928Z,94076.48
2019-03-11T15:37:53.773Z,94089.79
2019-03-11T15:40:22.501Z,94085.42
2019-03-11T15:42:51.194Z,94091.34
2019-03-11T15:45:20.341Z,94087.59
2019-03-11T15:47:49.068Z,94091.80
2019-03-11T15:50:26.722Z,94091.02
2019-03-11T15:52:55.428Z,94090.27
2019-03-11T15:55:24.224Z,94099.20
2019-03-11T15:57:52.976Z,94100.09
2019-03-11T16:00:22.697Z,94105.95
2019-03-11T16:02:51.390Z,94119.23
2019-03-11T16:05:21.763Z,94113.87
2019-03-11T16:07:59.766Z,94102.91
2019-03-11T16:10:28.610Z,94105.03
2019-03-11T16:12:57.320Z,94118.07
2019-03-11T16:15:26.017Z,94103.80
2019-03-11T16:17:54.773Z,94095.94
2019-03-11T16:20:24.993Z,94107.69
2019-03-11T16:22:53.702Z,94109.45
2019-03-11T16:25:22.685Z,94117.27
2019-03-11T16:27:51.402Z,94125.88
2019-03-11T16:30:24.317Z,94122.95
2019-03-11T16:32:59.849Z,94113.12
2019-03-11T16:35:26.235Z,94122.44
2019-03-11T16:37:55.124Z,94114.04
2019-03-11T16:40:24.024Z,94116.09
2019-03-11T16:42:52.723Z,94124.48
2019-03-11T16:45:21.638Z,94119.16
2019-03-11T16:47:50.588Z,94123.22
2019-03-11T16:50:26.987Z,94127.13
2019-03-11T16:52:56.017Z,94133.57
2019-03-11T16:55:32.720Z,94134.36
2019-03-11T16:58:01.467Z,94133.17
2019-03-11T17:00:31.727Z,94129.74
2019-03-11T17:03:00.439Z,94122.39
2019-03-11T17:05:29.226Z,94125.86
2019-03-11T17:07:57.945Z,94129.67
2019-03-11T17:10:26.633Z,94134.51
2019-03-11T17:15:29.335Z,94150.17
2019-03-11T17:17:58.033Z,94142.76
2019-03-11T17:20:26.743Z,94150.55
2019-03-11T17:22:55.492Z,94147.06
2019-03-11T17:25:24.197Z,94140.16
2019-03-11T17:27:52.890Z,94141.41
2019-03-11T17:30:26.570Z,94145.81
2019-03-11T17:32:55.285Z,94156.89
2019-03-11T17:35:24.099Z,94154.09
2019-03-11T17:37:52.849Z,94155.52
2019-03-11T17:40:25.239Z,94159.69
2019-03-11T17:42:54.402Z,94165.48
2019-03-11T17:45:26.239Z,94158.08
2019-03-11T17:47:54.874Z,94151.75
2019-03-11T17:50:24.483Z,94155.58
2019-03-11T17:52:53.325Z,94163.03
2019-03-11T17:55:22.051Z,94157.90
2019-03-11T17:57:50.747Z,94151.53
2019-03-11T18:00:26.137Z,94158.95
2019-03-11T18:02:55.149Z,94163.95
2019-03-11T18:05:24.032Z,94156.53
2019-03-11T18:07:54.338Z,94153.52
2019-03-11T18:10:23.127Z,94167.30
2019-03-11T18:12:51.762Z,94181.98
2019-03-11T18:15:20.444Z,94186.84
2019-03-11T18:17:51.874Z,94186.06
2019-03-11T18:20:21.374Z,94180.77
2019-03-11T18:22:50.363Z,94180.77
2019-03-11T18:25:20.828Z,94176.69
2019-03-11T18:27:49.659Z,94184.27
2019-03-11T18:30:20.800Z,94183.34
2019-03-11T18:32:49.687Z,94181.23
2019-03-11T18:35:18.681Z,94183.66
2019-03-11T18:37:47.378Z,94190.75
2019-03-11T18:40:17.480Z,94186.37
2019-03-11T18:42:46.215Z,94190.16
2019-03-11T18:45:15.680Z,94203.94
2019-03-11T18:47:44.607Z,94204.84
2019-03-11T18:50:25.912Z,94201.37
2019-03-11T18:52:54.540Z,94217.38
2019-03-11T18:55:23.168Z,94217.54
2019-03-11T18:57:51.948Z,94208.28
2019-03-11T19:00:21.744Z,94204.05
2019-03-11T19:02:50.576Z,94194.08
2019-03-11T19:05:24.036Z,94203.17
2019-03-11T19:07:55.162Z,94205.39
2019-03-11T19:10:23.227Z,94206.91
2019-03-11T19:12:51.991Z,94209.52
2019-03-11T19:15:26.703Z,94217.80
2019-03-11T19:17:55.347Z,94209.31
2019-03-11T19:20:24.881Z,94199.93
2019-03-11T19:22:56.488Z,94194.81
2019-03-11T19:25:25.114Z,94200.42
2019-03-11T19:27:53.712Z,94194.05
2019-03-11T19:30:28.757Z,94201.11
2019-03-11T19:32:57.399Z,94197.36
2019-03-11T19:35:26.040Z,94197.62
2019-03-11T19:37:54.725Z,94192.49
2019-03-11T19:40:24.730Z,94197.05
2019-03-11T19:42:53.351Z,94186.90
2019-03-11T19:45:22.015Z,94181.58
2019-03-11T19:47:50.746Z,94189.70
2019-03-11T19:50:19.978Z,94188.45
2019-03-11T19:52:58.326Z,94194.67
2019-03-11T19:55:21.982Z,94187.81
2019-03-11T19:57:50.605Z,94196.55
2019-03-11T20:00:24.214Z,94187.94
2019-03-11T20:02:52.939Z,94183.99
2019-03-11T20:05:24.440Z,94177.63
2019-03-11T20:07:53.119Z,94176.15
2019-03-11T20:10:21.937Z,94177.23
2019-03-11T20:12:50.528Z,94177.47
2019-03-11T20:15:19.129Z,94181.84
2019-03-11T20:17:47.844Z,94176.43
2019-03-11T20:20:17.958Z,94166.77
2019-03-11T20:22:47.391Z,94161.91
2019-03-11T20:25:24.788Z,94169.58
2019-03-11T20:27:53.438Z,94160.84
2019-03-11T20:30:23.231Z,94167.33
2019-03-11T20:32:52.147Z,94165.50
2019-03-11T20:35:20.785Z,94159.28
2019-03-11T20:37:49.401Z,94164.75
2019-03-11T20:40:18.036Z,94173.69
2019-03-11T20:42:46.547Z,94174.91
2019-03-11T20:45:16.465Z,94171.73
2019-03-11T20:47:45.094Z,94179.45
2019-03-11T20:50:18.385Z,94187.31
2019-03-11T20:52:47.076Z,94182.72
2019-03-11T20:55:19.771Z,94194.00
2019-03-11T20:57:48.432Z,94191.28
2019-03-11T21:00:23.692Z,94187.37
2019-03-11T21:02:52.776Z,94187.20
2019-03-11T21:05:35.565Z,94184.81
2019-03-11T21:08:04.239Z,94194.39
2019-03-11T21:10:32.947Z,94175.95
2019-03-11T21:13:01.643Z,94177.74
2019-03-11T21:15:30.287Z,94176.36
2019-03-11T21:17:58.867Z,94173.17
2019-03-11T21:20:27.723Z,94176.52
2019-03-11T21:23:02.297Z,94183.72
2019-03-11T21:25:30.823Z,94188.59
2019-03-11T21:27:59.483Z,94189.30
2019-03-11T21:30:28.078Z,94189.86
2019-03-11T21:32:56.739Z,94196.83
2019-03-11T21:35:25.546Z,94201.99
2019-03-11T21:37:54.429Z,94206.80
2019-03-11T21:40:24.061Z,94203.13
2019-03-11T21:42:52.862Z,94200.50
2019-03-11T21:45:33.538Z,94204.31
2019-03-11T21:47:51.992Z,94208.13
2019-03-11T21:50:28.587Z,94208.23
2019-03-11T21:52:57.402Z,94203.98
2019-03-11T21:55:26.074Z,94203.39
2019-03-11T21:57:54.775Z,94206.87
2019-03-11T22:00:33.950Z,94209.16
2019-03-11T22:02:54.638Z,94209.42
2019-03-11T22:05:23.335Z,94215.41
2019-03-11T22:07:51.895Z,94217.77
2019-03-11T22:10:21.162Z,94221.23
2019-03-11T22:12:49.817Z,94220.01
2019-03-11T22:15:25.924Z,94221.06
2019-03-11T22:17:54.483Z,94221.33
2019-03-11T22:20:23.035Z,94229.01
2019-03-11T22:22:51.702Z,94220.22
2019-03-11T22:25:21.237Z,94213.52
2019-03-11T22:27:49.861Z,94220.18
2019-03-11T22:30:21.464Z,94217.13
2019-03-11T22:32:50.084Z,94212.92
2019-03-11T22:35:18.821Z,94210.20
2019-03-11T22:37:56.615Z,94219.28
2019-03-11T22:40:25.233Z,94201.83
2019-03-11T22:42:53.795Z,94205.99
2019-03-11T22:45:22.760Z,94207.45
2019-03-11T22:47:51.798Z,94206.03
2019-03-11T22:50:21.218Z,94209.98
2019-03-11T22:52:49.900Z,94213.97
2019-03-11T22:55:19.636Z,94215.33
2019-03-11T22:57:48.376Z,94215.97
2019-03-11T23:00:33.547Z,94213.46
2019-03-11T23:03:02.172Z,94217.66
2019-03-11T23:05:30.799Z,94222.70
2019-03-11T23:07:59.473Z,94226.72
2019-03-11T23:10:28.096Z,94231.50
2019-03-11T23:12:56.656Z,94244.22
2019-03-11T23:15:25.332Z,94240.86
2019-03-11T23:17:53.953Z,94248.29
2019-03-11T23:20:22.590Z,94239.08
2019-03-11T23:22:51.199Z,94246.09
2019-03-11T23:25:19.835Z,94244.91
2019-03-11T23:27:48.471Z,94242.73
2019-03-11T23:30:17.142Z,94245.58
2019-03-11T23:32:45.695Z,94251.52
2019-03-11T23:35:14.324Z,94256.30
2019-03-11T23:37:42.908Z,94261.86
2019-03-11T23:40:11.523Z,94252.29
2019-03-11T23:42:40.188Z,94256.52
2019-03-11T23:45:10.811Z,94251.16
2019-03-11T23:47:39.408Z,94244.86
2019-03-11T23:50:12.158Z,94243.38
2019-03-11T23:52:40.714Z,94241.06
2019-03-11T23:55:11.636Z,94237.83
2019-03-11T23:57:40.200Z,94245.76
